createdAt,value
2023-02-15T00:00:39.894Z,24.80
2023-02-15T00:05:41.499Z,21.50
2023-02-15T00:10:43.010Z,22.43
2023-02-15T00:15:44.585Z,20.27
2023-02-15T00:20:46.269Z,20.47
2023-02-15T00:25:47.995Z,24.97
2023-02-15T00:30:49.693Z,23.93
2023-02-15T00:35:57.722Z,22.43
2023-02-15T00:41:00.570Z,25.53
2023-02-15T00:46:03.186Z,24.07
2023-02-15T00:51:05.087Z,23.37
2023-02-15T00:56:06.689Z,22.47
2023-02-15T01:01:14.373Z,23.40
2023-02-15T01:06:17.242Z,23.17
2023-02-15T01:11:24.640Z,23.23
2023-02-15T01:16:28.257Z,23.80
2023-02-15T01:21:30.324Z,25.13
2023-02-15T01:26:31.918Z,22.37
2023-02-15T01:31:33.957Z,24.97
2023-02-15T01:36:36.211Z,22.33
2023-02-15T01:41:37.853Z,22.50
2023-02-15T01:46:42.868Z,22.77
2023-02-15T01:51:47.107Z,23.67
2023-02-15T01:56:49.174Z,25.87
2023-02-15T02:01:53.839Z,21.73
2023-02-15T02:06:55.864Z,24.33
2023-02-15T02:11:57.570Z,23.23
2023-02-15T02:17:29.243Z,22.67
2023-02-15T02:22:58.503Z,23.10
2023-02-15T02:28:16.356Z,21.83
2023-02-15T02:33:36.327Z,23.80
2023-02-15T02:38:47.376Z,21.93
2023-02-15T02:44:06.159Z,26.90
2023-02-15T02:49:07.691Z,24.00
2023-02-15T02:54:09.396Z,24.03
2023-02-15T02:59:20.030Z,24.93
2023-02-15T03:04:26.000Z,23.67
2023-02-15T03:09:42.602Z,22.83
2023-02-15T03:14:46.601Z,23.73
2023-02-15T03:19:49.604Z,23.17
2023-02-15T03:25:06.260Z,23.83
2023-02-15T03:30:08.938Z,25.70
2023-02-15T03:35:10.912Z,23.30
2023-02-15T03:40:37.973Z,22.20
2023-02-15T03:45:56.044Z,23.57
2023-02-15T03:51:20.142Z,23.63
2023-02-15T03:56:21.811Z,24.67
2023-02-15T04:01:49.629Z,26.17
2023-02-15T04:06:51.205Z,23.60
2023-02-15T04:11:52.814Z,25.00
2023-02-15T04:16:54.554Z,24.70
2023-02-15T04:22:14.836Z,22.00
2023-02-15T04:27:17.826Z,22.83
2023-02-15T04:32:19.507Z,24.87
2023-02-15T04:37:21.991Z,19.73
2023-02-15T04:42:23.575Z,21.73
2023-02-15T04:47:25.248Z,20.70
2023-02-15T04:52:26.938Z,25.13
2023-02-15T04:57:28.512Z,21.30
2023-02-15T05:02:30.254Z,20.77
2023-02-15T05:07:31.960Z,21.80
2023-02-15T05:12:33.570Z,23.17
2023-02-15T05:17:35.321Z,20.40
2023-02-15T05:22:37.143Z,20.40
2023-02-15T05:27:57.540Z,21.33
2023-02-15T05:32:59.059Z,19.93
2023-02-15T05:38:01.539Z,20.80
2023-02-15T05:43:03.375Z,21.07
2023-02-15T05:48:05.184Z,21.27
2023-02-15T05:53:06.782Z,21.40
2023-02-15T05:58:08.955Z,20.77
2023-02-15T06:03:10.603Z,19.17
2023-02-15T06:08:12.297Z,18.73
2023-02-15T06:13:13.928Z,17.97
2023-02-15T06:18:15.906Z,20.67
2023-02-15T06:23:17.760Z,20.57
2023-02-15T06:28:19.425Z,20.77
2023-02-15T06:33:21.148Z,18.17
2023-02-15T06:38:22.665Z,20.00
2023-02-15T06:43:24.321Z,17.97
2023-02-15T06:48:26.070Z,20.83
2023-02-15T06:53:27.689Z,22.70
2023-02-15T06:58:29.482Z,17.10
2023-02-15T07:03:31.341Z,20.07
2023-02-15T07:08:32.872Z,20.20
2023-02-15T07:13:34.478Z,17.83
2023-02-15T07:18:36.929Z,20.47
2023-02-15T07:23:39.769Z,18.50
2023-02-15T07:28:41.379Z,17.37
2023-02-15T07:33:43.003Z,17.10
2023-02-15T07:38:45.881Z,17.57
2023-02-15T07:43:47.548Z,15.20
2023-02-15T07:48:49.381Z,19.20
2023-02-15T07:53:52.544Z,13.30
2023-02-15T07:58:56.590Z,13.30
2023-02-15T08:04:01.512Z,15.17
2023-02-15T08:09:09.735Z,11.47
2023-02-15T08:14:19.031Z,11.10
2023-02-15T08:19:21.843Z,14.43
2023-02-15T08:24:25.620Z,11.47
2023-02-15T08:29:29.155Z,9.93
2023-02-15T08:34:32.799Z,10.80
2023-02-15T08:39:34.567Z,11.50
2023-02-15T08:44:36.201Z,10.13
2023-02-15T08:49:37.851Z,10.10
2023-02-15T08:54:39.551Z,9.67
2023-02-15T08:59:41.455Z,10.27
2023-02-15T09:04:43.069Z,10.20
2023-02-15T09:09:46.369Z,10.03
2023-02-15T09:14:47.998Z,9.70
2023-02-15T09:19:50.416Z,11.87
2023-02-15T09:24:52.059Z,13.17
2023-02-15T09:29:53.653Z,9.40
2023-02-15T09:34:55.380Z,10.50
2023-02-15T09:39:57.158Z,9.93
2023-02-15T09:45:26.480Z,9.83
2023-02-15T09:50:27.986Z,12.17
2023-02-15T09:55:49.815Z,11.67
2023-02-15T10:01:09.811Z,13.33
2023-02-15T10:06:43.050Z,12.60
2023-02-15T10:12:10.410Z,10.83
2023-02-15T10:17:33.835Z,11.93
2023-02-15T10:22:43.962Z,12.03
2023-02-15T10:27:48.248Z,11.73
2023-02-15T10:32:58.702Z,12.80
2023-02-15T10:38:00.766Z,10.93
2023-02-15T10:43:28.470Z,12.80
2023-02-15T10:48:48.386Z,9.77
2023-02-15T10:54:15.775Z,14.30
2023-02-15T10:59:26.151Z,11.20
2023-02-15T11:04:52.294Z,10.90
2023-02-15T11:10:01.859Z,11.03
2023-02-15T11:15:18.539Z,12.07
2023-02-15T11:20:22.924Z,11.70
2023-02-15T11:25:37.745Z,10.77
2023-02-15T11:30:47.450Z,9.03
2023-02-15T11:36:00.722Z,9.57
2023-02-15T11:41:11.748Z,12.07
2023-02-15T11:46:13.938Z,10.00
2023-02-15T11:51:18.782Z,10.23
2023-02-15T11:56:23.136Z,9.17
2023-02-15T12:01:44.311Z,10.20
2023-02-15T12:06:50.733Z,11.07
2023-02-15T12:11:52.281Z,14.60
2023-02-15T12:16:56.107Z,8.20
2023-02-15T12:21:58.674Z,9.30
2023-02-15T12:27:06.347Z,9.73
2023-02-15T12:32:12.793Z,12.33
2023-02-15T12:37:20.951Z,9.50
2023-02-15T12:42:23.028Z,8.57
2023-02-15T12:47:30.486Z,10.30
2023-02-15T12:52:32.344Z,10.67
2023-02-15T12:57:34.916Z,10.67
2023-02-15T13:02:43.728Z,12.13
2023-02-15T13:07:47.714Z,10.23
2023-02-15T13:12:52.852Z,11.10
2023-02-15T13:17:56.876Z,9.27
2023-02-15T13:23:20.599Z,9.23
2023-02-15T13:28:25.800Z,9.97
2023-02-15T13:33:33.131Z,11.67
2023-02-15T13:38:40.664Z,10.50
2023-02-15T13:43:48.335Z,8.90
2023-02-15T13:49:26.453Z,11.17
2023-02-15T13:54:33.983Z,7.77
2023-02-15T14:00:01.817Z,8.77
2023-02-15T14:05:23.543Z,8.47
2023-02-15T14:10:28.241Z,7.47
2023-02-15T14:15:50.131Z,9.10
2023-02-15T14:21:03.863Z,7.20
2023-02-15T14:26:09.038Z,8.77
2023-02-15T14:31:13.128Z,9.17
2023-02-15T14:36:18.153Z,10.70
2023-02-15T14:41:48.536Z,8.20
2023-02-15T14:47:08.134Z,12.73
2023-02-15T14:52:12.321Z,11.03
2023-02-15T14:57:15.686Z,12.33
2023-02-15T15:02:25.689Z,11.07
2023-02-15T15:07:44.807Z,10.33
2023-02-15T15:12:54.166Z,8.70
2023-02-15T15:18:00.195Z,9.87
2023-02-15T15:23:16.652Z,11.73
2023-02-15T15:28:36.512Z,9.77
2023-02-15T15:33:53.817Z,11.10
2023-02-15T15:39:16.920Z,9.73
2023-02-15T15:44:27.806Z,9.90
2023-02-15T15:49:32.650Z,10.67
2023-02-15T15:54:34.495Z,9.73
2023-02-15T15:59:36.276Z,13.43
2023-02-15T16:04:38.342Z,10.90
2023-02-15T16:09:40.511Z,9.47
2023-02-15T16:14:44.004Z,10.30
2023-02-15T16:19:46.113Z,9.80
2023-02-15T16:25:16.179Z,10.67
2023-02-15T16:30:23.472Z,9.83
2023-02-15T16:35:25.084Z,11.63
2023-02-15T16:40:26.622Z,11.10
2023-02-15T16:45:28.610Z,10.67
2023-02-15T16:50:34.691Z,11.73
2023-02-15T16:55:39.413Z,12.57
2023-02-15T17:00:43.850Z,13.30
2023-02-15T17:05:47.141Z,13.23
2023-02-15T17:11:06.132Z,11.00
2023-02-15T17:16:24.883Z,11.83
2023-02-15T17:21:34.879Z,9.63
2023-02-15T17:26:37.997Z,10.27
2023-02-15T17:31:40.742Z,10.10
2023-02-15T17:36:58.661Z,13.40
2023-02-15T17:42:00.348Z,11.85
2023-02-15T17:47:02.066Z,11.20
2023-02-15T17:52:04.117Z,12.67
2023-02-15T17:57:13.694Z,9.70
2023-02-15T18:02:34.583Z,11.47
2023-02-15T18:07:55.296Z,11.57
2023-02-15T18:12:57.652Z,11.17
2023-02-15T18:17:59.480Z,11.57
2023-02-15T18:23:02.371Z,10.90
2023-02-15T18:28:04.142Z,12.67
2023-02-15T18:33:05.923Z,11.53
2023-02-15T18:38:10.347Z,10.13
2023-02-15T18:43:13.104Z,13.60
2023-02-15T18:48:15.576Z,11.20
2023-02-15T18:53:21.299Z,13.70
2023-02-15T18:58:24.673Z,14.13
2023-02-15T19:03:26.562Z,15.30
2023-02-15T19:08:28.563Z,17.60
2023-02-15T19:13:30.178Z,13.67
2023-02-15T19:18:32.555Z,15.27
2023-02-15T19:23:34.194Z,11.73
2023-02-15T19:28:35.765Z,14.13
2023-02-15T19:33:37.672Z,14.53
2023-02-15T19:38:40.980Z,16.93
2023-02-15T19:43:43.021Z,15.83
2023-02-15T19:48:44.547Z,13.23
2023-02-15T19:53:48.062Z,14.23
2023-02-15T19:58:51.724Z,13.50
2023-02-15T20:03:53.532Z,13.33
2023-02-15T20:08:55.795Z,15.90
2023-02-15T20:13:59.514Z,13.60
2023-02-15T20:19:01.179Z,18.03
2023-02-15T20:24:03.699Z,17.20
2023-02-15T20:29:05.582Z,16.63
2023-02-15T20:34:07.442Z,14.53
2023-02-15T20:39:16.751Z,14.03
2023-02-15T20:44:24.972Z,14.83
2023-02-15T20:49:27.649Z,14.03
2023-02-15T20:54:35.142Z,14.57
2023-02-15T20:59:37.246Z,12.33
2023-02-15T21:04:38.921Z,15.27
2023-02-15T21:09:40.490Z,18.53
2023-02-15T21:14:42.720Z,17.47
2023-02-15T21:19:44.446Z,16.07
2023-02-15T21:24:51.023Z,16.67
2023-02-15T21:29:52.718Z,15.27
2023-02-15T21:34:54.468Z,14.00
2023-02-15T21:39:56.333Z,14.70
2023-02-15T21:45:16.708Z,19.23
2023-02-15T21:50:46.071Z,14.77
2023-02-15T21:55:47.919Z,16.37
2023-02-15T22:00:49.899Z,17.37
2023-02-15T22:05:51.683Z,15.60
2023-02-15T22:10:54.469Z,15.20
2023-02-15T22:15:56.993Z,17.93
2023-02-15T22:20:59.826Z,19.07
2023-02-15T22:26:07.886Z,18.60
2023-02-15T22:31:15.608Z,17.97
2023-02-15T22:36:25.620Z,18.53
2023-02-15T22:41:30.640Z,17.97
2023-02-15T22:46:32.302Z,19.17
2023-02-15T22:51:37.011Z,16.90
2023-02-15T22:56:49.446Z,21.00
2023-02-15T23:01:51.036Z,19.27
2023-02-15T23:06:53.445Z,18.27
2023-02-15T23:11:55.156Z,16.57
2023-02-15T23:16:56.950Z,19.13
2023-02-15T23:21:58.491Z,20.20
2023-02-15T23:27:20.159Z,17.80
2023-02-15T23:32:22.177Z,17.70
2023-02-15T23:37:23.911Z,17.47
2023-02-15T23:42:28.467Z,16.77
2023-02-15T23:47:51.433Z,20.57
2023-02-15T23:52:54.146Z,17.30
2023-02-15T23:57:55.699Z,20.13
